Chengdu, China
Current Conditions -  °F | °C
As of 7:00 AM on Sunday 26 Oct 2014 (Local Time) from ZUUU Reporting Station
Haze Haze  
Wind Chill: 64°   Ceiling: Unl
Heat Index: 64°   Visibility: 0.93mi
Dew Point: 61°   Wind: 2mph
Humidity: 88%   Direction: 330°NNW
Pressure: 30.09"   Gusts: NA
Location:  30.67°N, 104.07°E
Report Text: ZUUU 252300Z 33001MPS 1500 BR FEW003 18/16 Q1019 BECMGTL00301400 BR
Loading
Personal Weather Stations






























Interactive Weather Map New forecast layout! Learn more

10-Day Weather Forecast

Advertisements
Track Severe Weather on mobile